Relevés horaires Schaffen (Belgique)


Relevés horaires à Schaffen - Mardi 20 Mars 2018
Heure UTC1 Température [°C] Vent [km/h] Hum. [%] Pres.4 [hPa] Visi. [Km] Nébu. [octa] Préc.5 [mm] Cond.
2m. Res. Ros. Dir.2 Vit. Moy. Raf.3
23:00 0.0 -2.5 -3.8 N 7.4 -- 11.1 75 1029.7(1.5/3h) 20 -- -- --
22:00 0.9 -0.8 -5.4 N 5.6 -- 11.1 63 1029.4(2.1/3h) 20 -- -- --
21:00 2.1 -0.6 -4.6 N 9.3 -- 16.7 61 1028.9(2.4/3h) 20 -- -- --
20:00 2.4 -0.3 -4.9 N 9.3 -- 16.7 58 1028(2.7/3h) 20 -- -- --
19:00 3.6 0.7 -4.1 N 11.1 -- 16.7 57 1027.2(2.9/3h) 20 -- -- --
18:00 5.4 2.6 -8.0 N 13.0 -- 25.9 37 1026.2(2.5/3h) 20 -- -- --
17:00 6.7 4.1 -7.8 N 13.0 -- 25.9 35 1025.2(2.0/3h) 20 -- -- --
16:00 7.6 4.7 -8.8 N 16.7 -- 24.1 30 1024(1.5/3h) 20 2/8 -- --
15:00 8.2 5.5 -7.9 N 16.7 -- 25.9 31 1023.5(1.3/3h) 20 2/8 -- --
14:00 8.7 6.3 -5.6 N 14.8 -- 25.9 36 1023(1.1/3h) 20 2/8 -- --
13:00 8.5 5.9 -8.2 NNE 16.7 -- 25.9 30 1022.7(1.5/3h) 20 2/8 -- --
12:00 7.4 4.5 -7.6 N 16.7 -- 25.9 33 1022.2(2.0/3h) 20 2/8 trace/6h
Nuages se dissipant
11:00 6.6 3.5 -4.2 N 16.7 -- 25.9 46 1021.8(2.0/3h) 20 2/8 -- --
10:00 5.3 2.4 -2.1 N 13.0 -- 22.2 59 1021.2(2.0/3h) 20 3/8 -- --
09:00 3.7 0.5 -0.1 N 13.0 -- 18.5 76 1020.2(1.7/3h) 17 6/8 -- --
08:00 1.7 -0.6 0.5 N 7.4 -- 11.1 92 1019.8(1.3/3h) 9 7/8 -- --
07:00 -0.7 -2.7 -1.8 ONO 5.6 -- 9.3 92 1019.2(0.5/3h) 7 7/8 -- Il y a eu de la pluie et de la neige mêlées ou des granules de glace, (non sous forme d'averses) à la station au cours de l'heure précédente, mais il n'y en a pas au moment de l'observation
06:00 -1.5 -3.6 -3.0 O 5.6 -- 9.3 89 1018.6(-0.2/3h) 6 8/8 0.1/12h
Il y a de la neige, accompagnée soit de bruine ou bruine verglaçante, soit de pluie ou pluie verglaçante à la station au moment de l'observation, et l'intensité de ces précipitations reste faible
05:00 -2.0 -2.0 -7.1 NNO 1.9 -- 7.4 68 1018.7(0.1/3h) 20 8/8 -- --
04:00 -2.2 -2.2 -8.0 ONO 3.7 -- 7.4 64 1018.7(0.1/3h) 20 -- -- --
03:00 -3.0 -5.3 -8.9 NNO 5.6 -- 9.3 64 1018.8(0.5/3h) 20 -- -- --
02:00 -3.7 -6.1 -10.2 NNO 5.6 -- 9.3 61 1018.7(0.6/3h) 20 -- -- --
01:00 -3.5 -5.9 -11.5 NNO 5.6 -- 9.3 54 1018.6(0.9/3h) 20 -- -- --
00:00 -2.6 -5.6 -12.1 N 7.4 -- 13.0 48 1018.2(1.0/3h) 20 -- -- --

1 Coordinated Universal Time. Actuellement il est 04:00 locale et 03:00 UTC.

2 Le vent souffle depuis la direction indiquée vers la direction oposée.

3 Les rafales max. sont disponible 40 min après l'heure du relevé.

4 Pour les stations d'altitude (plus de 600m) le géopotentiel du niveau le plus proche de la pression obligatoire est indiqué.

5 Les stations disposant d'un diffuseur peuvent indiquer "trace". Cela signifie que des précipitations ont touchés le sol mais que la quantité est inférieure à 0.1 mm.

Récapitulatif de la journée
Température [°C] Vent [km/h] Ensoleillement4 [h] Precipitations totale5 [mm] Pression [Hpa]
Min1 Max.2 Moy.3 Max. Min Max.
-4.2 9.1 0 25.9 0 h 0 min 0 1018.2 1029.7

1 Température minimale relevée entre 18:00 UTC la veille et 18:00 UTC le jour donné.

2 Température maximale relevée entre 06:00 UTC le jour donné et 06:00 UTC le lendemain.

3 Vent moyen de la journée basé sur les relevés horaires.

4 Ensoleillement en heures relevé entre 06:00 UTC la veille et 06:00 UTC le jour donné.

5 Précipitations totales tombées entre 06:00 UTC la jour donné et 06:00 UTC le lendemain.

Graphiques horaires